createdAt,value
2023-02-23T00:01:30.328Z,29.67
2023-02-23T00:04:04.307Z,30.27
2023-02-23T00:06:37.834Z,30.17
2023-02-23T00:09:22.868Z,29.85
2023-02-23T00:11:57.437Z,31.33
2023-02-23T00:14:31.266Z,29.75
2023-02-23T00:17:03.661Z,29.95
2023-02-23T00:19:37.911Z,31.73
2023-02-23T00:22:10.137Z,32.58
2023-02-23T00:24:47.183Z,32.33
2023-02-23T00:27:21.131Z,31.63
2023-02-23T00:29:53.584Z,31.25
2023-02-23T00:32:25.704Z,33.65
2023-02-23T00:34:58.528Z,32.17
2023-02-23T00:37:30.602Z,34.00
2023-02-23T00:40:04.003Z,33.95
2023-02-23T00:42:36.178Z,32.90
2023-02-23T00:45:11.961Z,33.67
2023-02-23T00:47:45.169Z,35.08
2023-02-23T00:50:18.566Z,33.65
2023-02-23T00:52:50.562Z,38.95
2023-02-23T00:55:22.602Z,36.13
2023-02-23T00:57:54.611Z,37.70
2023-02-23T01:00:26.612Z,35.88
2023-02-23T01:02:58.606Z,39.85
2023-02-23T01:05:34.873Z,36.53
2023-02-23T01:08:09.548Z,37.58
2023-02-23T01:10:43.782Z,38.35
2023-02-23T01:13:18.135Z,35.53
2023-02-23T01:15:52.300Z,35.85
2023-02-23T01:18:24.568Z,36.35
2023-02-23T01:20:56.562Z,34.63
2023-02-23T01:23:28.667Z,38.42
2023-02-23T01:26:00.775Z,36.22
2023-02-23T01:28:32.712Z,37.22
2023-02-23T01:31:09.666Z,37.72
2023-02-23T01:33:41.972Z,37.88
2023-02-23T01:36:14.454Z,36.95
2023-02-23T01:38:46.438Z,37.38
2023-02-23T01:41:18.699Z,36.75
2023-02-23T01:44:29.515Z,35.58
2023-02-23T01:47:01.690Z,35.38
2023-02-23T01:49:36.805Z,35.17
2023-02-23T01:52:13.738Z,36.08
2023-02-23T01:54:53.603Z,34.95
2023-02-23T01:57:27.112Z,34.25
2023-02-23T01:59:59.924Z,34.22
2023-02-23T02:02:34.014Z,35.47
2023-02-23T02:05:13.359Z,34.58
2023-02-23T02:07:49.697Z,34.60
2023-02-23T02:10:39.691Z,34.58
2023-02-23T02:13:18.509Z,34.20
2023-02-23T02:16:17.771Z,33.53
2023-02-23T02:18:58.458Z,34.28
2023-02-23T02:21:40.196Z,31.80
2023-02-23T02:24:52.565Z,34.15
2023-02-23T02:27:43.527Z,34.08
2023-02-23T02:30:27.663Z,35.58
2023-02-23T02:33:26.783Z,34.17
2023-02-23T02:36:41.715Z,33.92
2023-02-23T02:39:37.158Z,31.48
2023-02-23T02:42:36.666Z,32.83
2023-02-23T02:45:22.261Z,33.07
2023-02-23T02:48:06.976Z,31.30
2023-02-23T02:51:20.302Z,33.67
2023-02-23T02:54:11.228Z,33.33
2023-02-23T02:56:44.909Z,31.38
2023-02-23T02:59:38.343Z,32.58
2023-02-23T03:02:42.008Z,31.83
2023-02-23T03:05:42.877Z,30.55
2023-02-23T03:08:56.279Z,32.88
2023-02-23T03:12:10.208Z,32.88
2023-02-23T03:15:51.292Z,34.03
2023-02-23T03:19:12.817Z,33.72
2023-02-23T03:22:30.097Z,33.17
2023-02-23T03:25:45.569Z,33.15
2023-02-23T03:28:40.379Z,33.10
2023-02-23T03:32:00.775Z,34.15
2023-02-23T03:37:57.434Z,33.63
2023-02-23T03:40:53.739Z,35.75
2023-02-23T03:43:57.000Z,35.38
2023-02-23T03:46:49.486Z,34.38
2023-02-23T03:49:44.925Z,34.17
2023-02-23T03:52:40.948Z,33.03
2023-02-23T03:55:39.048Z,34.97
2023-02-23T03:58:37.084Z,36.42
2023-02-23T04:01:29.587Z,35.88
2023-02-23T04:04:22.446Z,32.95
2023-02-23T04:07:17.445Z,34.95
2023-02-23T04:10:08.478Z,36.10
2023-02-23T04:13:24.450Z,34.58
2023-02-23T04:16:10.461Z,35.47
2023-02-23T04:18:42.740Z,36.00
2023-02-23T04:21:14.827Z,37.80
2023-02-23T04:23:47.110Z,35.40
2023-02-23T04:26:19.330Z,37.13
2023-02-23T04:28:51.334Z,32.00
2023-02-23T04:31:25.352Z,36.05
2023-02-23T04:33:57.746Z,34.35
2023-02-23T04:36:29.704Z,34.03
2023-02-23T04:39:01.752Z,35.90
2023-02-23T04:41:33.771Z,34.58
2023-02-23T04:44:05.785Z,34.90
2023-02-23T04:46:37.725Z,36.15
2023-02-23T04:49:09.812Z,38.67
2023-02-23T04:51:41.732Z,38.95
2023-02-23T04:54:14.493Z,34.20
2023-02-23T04:56:46.652Z,37.53
2023-02-23T04:59:19.204Z,35.95
2023-02-23T05:01:51.159Z,38.17
2023-02-23T05:04:23.347Z,35.92
2023-02-23T05:06:55.272Z,37.70
2023-02-23T05:09:27.436Z,37.75
2023-02-23T05:11:59.946Z,36.70
2023-02-23T05:14:32.264Z,35.80
2023-02-23T05:17:08.536Z,39.55
2023-02-23T05:19:41.201Z,36.85
2023-02-23T05:22:13.280Z,35.63
2023-02-23T05:24:45.261Z,37.92
2023-02-23T05:27:17.942Z,35.80
2023-02-23T05:29:49.908Z,37.25
2023-02-23T05:32:22.082Z,35.25
2023-02-23T05:34:54.118Z,36.58
2023-02-23T05:37:26.107Z,34.38
2023-02-23T05:39:58.097Z,36.15
2023-02-23T05:42:30.032Z,37.92
2023-02-23T05:45:02.043Z,37.25
2023-02-23T05:47:38.651Z,37.92
2023-02-23T05:50:11.765Z,35.80
2023-02-23T05:52:43.761Z,36.38
2023-02-23T05:55:15.799Z,36.17
2023-02-23T05:57:47.824Z,37.20
2023-02-23T06:00:20.609Z,37.58
2023-02-23T06:02:54.038Z,36.47
2023-02-23T06:05:26.120Z,37.50
2023-02-23T06:07:58.143Z,33.63
2023-02-23T06:10:30.161Z,40.10
2023-02-23T06:13:02.470Z,42.20
2023-02-23T06:15:34.432Z,37.72
2023-02-23T06:18:07.580Z,41.17
2023-02-23T06:20:40.489Z,40.15
2023-02-23T06:23:12.820Z,38.38
2023-02-23T06:25:47.634Z,39.70
2023-02-23T06:28:19.600Z,40.38
2023-02-23T06:30:55.928Z,38.85
2023-02-23T06:33:28.177Z,39.30
2023-02-23T06:36:00.183Z,41.90
2023-02-23T06:38:32.159Z,39.97
2023-02-23T06:41:11.720Z,39.20
2023-02-23T06:43:43.735Z,39.20
2023-02-23T06:46:15.897Z,38.97
2023-02-23T06:48:48.010Z,41.13
2023-02-23T06:51:20.383Z,40.17
2023-02-23T06:53:53.534Z,41.22
2023-02-23T06:56:25.647Z,42.00
2023-02-23T06:58:57.633Z,40.58
2023-02-23T07:01:30.271Z,42.38
2023-02-23T07:04:02.393Z,43.15
2023-02-23T07:06:34.459Z,41.80
2023-02-23T07:09:06.492Z,40.50
2023-02-23T07:11:41.325Z,44.22
2023-02-23T07:14:21.429Z,43.67
2023-02-23T07:16:58.333Z,45.00
2023-02-23T07:19:31.604Z,42.63
2023-02-23T07:22:04.988Z,46.53
2023-02-23T07:24:38.568Z,44.60
2023-02-23T07:27:10.681Z,44.25
2023-02-23T07:29:42.849Z,42.38
2023-02-23T07:32:14.911Z,42.35
2023-02-23T07:34:47.880Z,44.65
2023-02-23T07:37:20.086Z,45.38
2023-02-23T07:39:52.096Z,41.35
2023-02-23T07:42:24.524Z,47.38
2023-02-23T07:44:56.487Z,46.08
2023-02-23T07:47:31.399Z,48.25
2023-02-23T07:50:09.935Z,49.08
2023-02-23T07:52:43.351Z,45.30
2023-02-23T07:55:15.401Z,46.38
2023-02-23T07:57:47.398Z,47.42
2023-02-23T08:00:19.972Z,46.85
2023-02-23T08:02:53.395Z,48.63
2023-02-23T08:05:26.592Z,47.88
2023-02-23T08:07:59.743Z,46.90
2023-02-23T08:10:31.985Z,51.70
2023-02-23T08:13:04.718Z,51.30
2023-02-23T08:15:36.750Z,47.67
2023-02-23T08:18:09.530Z,46.88
2023-02-23T08:20:41.766Z,47.17
2023-02-23T08:23:13.770Z,47.15
2023-02-23T08:25:45.730Z,46.58
2023-02-23T08:28:17.728Z,49.33
2023-02-23T08:30:49.768Z,47.15
2023-02-23T08:33:22.606Z,49.33
2023-02-23T08:35:54.608Z,49.33
2023-02-23T08:38:26.865Z,53.30
2023-02-23T08:41:03.526Z,49.53
2023-02-23T08:43:35.549Z,56.35
2023-02-23T08:46:07.814Z,50.80
2023-02-23T08:48:40.787Z,49.83
2023-02-23T08:51:14.780Z,54.30
2023-02-23T08:53:46.726Z,51.55
2023-02-23T08:56:18.833Z,51.55
2023-02-23T08:58:51.745Z,50.90
2023-02-23T09:01:23.965Z,51.05
2023-02-23T09:03:56.034Z,51.10
2023-02-23T09:06:28.294Z,49.35
2023-02-23T09:09:00.264Z,52.17
2023-02-23T09:11:32.337Z,49.67
2023-02-23T09:14:04.348Z,52.25
2023-02-23T09:16:36.928Z,49.15
2023-02-23T09:19:08.964Z,52.22
2023-02-23T09:21:40.985Z,50.60
2023-02-23T09:24:13.102Z,49.03
2023-02-23T09:26:45.996Z,48.38
2023-02-23T09:29:18.115Z,49.30
2023-02-23T09:31:53.055Z,49.75
2023-02-23T09:34:25.311Z,51.63
2023-02-23T09:36:57.261Z,49.55
2023-02-23T09:39:38.038Z,48.85
2023-02-23T09:42:28.401Z,48.05
2023-02-23T09:45:23.763Z,47.80
2023-02-23T09:48:07.448Z,44.00
2023-02-23T09:50:44.146Z,43.28
2023-02-23T09:53:53.220Z,43.42
2023-02-23T09:56:31.932Z,43.63
2023-02-23T09:59:13.528Z,41.92
2023-02-23T10:01:48.471Z,42.58
2023-02-23T10:04:32.831Z,42.53
2023-02-23T10:07:33.456Z,40.97
2023-02-23T10:10:35.408Z,38.22
2023-02-23T10:13:32.641Z,41.65
2023-02-23T10:16:24.798Z,36.92
2023-02-23T10:19:13.883Z,37.30
2023-02-23T10:21:58.206Z,40.88
2023-02-23T10:24:41.858Z,37.28
2023-02-23T10:27:38.016Z,38.35
2023-02-23T10:30:32.313Z,36.28
2023-02-23T10:33:11.353Z,33.78
2023-02-23T10:35:44.558Z,36.38
2023-02-23T10:38:18.968Z,35.47
2023-02-23T10:40:56.168Z,35.45
2023-02-23T10:43:28.257Z,34.35
2023-02-23T10:46:00.288Z,35.25
2023-02-23T10:48:43.351Z,34.05
2023-02-23T10:51:24.083Z,32.78
2023-02-23T10:54:01.159Z,36.70
2023-02-23T10:56:44.819Z,38.17
2023-02-23T10:59:21.493Z,34.83
2023-02-23T11:02:01.866Z,35.53
2023-02-23T11:04:35.400Z,32.97
2023-02-23T11:07:19.816Z,35.97
2023-02-23T11:09:52.936Z,34.67
2023-02-23T11:12:41.936Z,35.35
2023-02-23T11:15:49.408Z,36.88
2023-02-23T11:18:25.035Z,35.42
2023-02-23T11:20:58.030Z,37.08
2023-02-23T11:23:36.124Z,37.03
2023-02-23T11:26:32.821Z,38.92
2023-02-23T11:29:35.856Z,38.67
2023-02-23T11:32:21.249Z,38.72
2023-02-23T11:35:30.882Z,36.65
2023-02-23T11:38:35.319Z,39.92
2023-02-23T11:41:21.494Z,37.42
2023-02-23T11:43:59.389Z,40.78
2023-02-23T11:46:37.053Z,37.90
2023-02-23T11:49:29.746Z,39.00
2023-02-23T11:52:24.756Z,40.13
2023-02-23T11:55:00.905Z,41.08
2023-02-23T11:57:37.581Z,40.70
2023-02-23T12:00:20.546Z,39.00
2023-02-23T12:02:58.808Z,40.42
2023-02-23T12:05:32.627Z,38.65
2023-02-23T12:08:33.579Z,39.75
2023-02-23T12:11:13.094Z,40.08
2023-02-23T12:13:48.445Z,41.90
2023-02-23T12:16:33.329Z,42.60
2023-02-23T12:19:41.032Z,39.60
2023-02-23T12:22:21.976Z,43.00
2023-02-23T12:25:02.907Z,40.65
2023-02-23T12:27:46.558Z,47.10
2023-02-23T12:30:32.402Z,41.95
2023-02-23T12:33:10.095Z,43.85
2023-02-23T12:36:16.511Z,44.05
2023-02-23T12:38:57.586Z,45.70
2023-02-23T12:41:37.962Z,45.50
2023-02-23T12:44:51.571Z,49.40
2023-02-23T12:47:36.464Z,45.28
2023-02-23T12:50:21.007Z,45.08
2023-02-23T12:53:12.587Z,45.08
2023-02-23T12:56:18.898Z,49.58
2023-02-23T12:59:13.451Z,42.72
2023-02-23T13:02:08.738Z,45.67
2023-02-23T13:05:07.961Z,44.55
2023-02-23T13:08:12.483Z,41.10
2023-02-23T13:11:23.310Z,42.95
2023-02-23T13:14:09.412Z,40.47
2023-02-23T13:16:51.730Z,42.10
2023-02-23T13:19:48.355Z,41.13
2023-02-23T13:22:59.426Z,36.90
2023-02-23T13:25:54.349Z,38.78
2023-02-23T13:28:56.415Z,38.13
2023-02-23T13:31:41.251Z,36.33
2023-02-23T13:34:26.806Z,37.40
2023-02-23T13:37:04.349Z,35.70
2023-02-23T13:39:48.706Z,38.78
2023-02-23T13:42:58.883Z,35.60
2023-02-23T13:45:43.821Z,32.72
2023-02-23T13:48:31.162Z,37.22
2023-02-23T13:51:55.093Z,34.20
2023-02-23T13:54:36.705Z,33.42
2023-02-23T13:57:18.364Z,34.00
2023-02-23T13:59:51.466Z,32.72
2023-02-23T14:02:42.169Z,35.72
2023-02-23T14:05:25.012Z,34.88
2023-02-23T14:08:04.530Z,33.45
2023-02-23T14:10:41.729Z,34.67
2023-02-23T14:13:16.706Z,32.42
2023-02-23T14:15:53.830Z,30.30
2023-02-23T14:18:32.460Z,33.28
2023-02-23T14:21:21.411Z,33.20
2023-02-23T14:24:18.361Z,32.20
2023-02-23T14:27:40.062Z,34.67
2023-02-23T14:30:17.576Z,29.40
2023-02-23T14:32:51.273Z,31.70
2023-02-23T14:35:40.186Z,30.30
2023-02-23T14:38:24.987Z,32.58
2023-02-23T14:40:57.812Z,44.67
2023-02-23T14:43:35.966Z,32.33
2023-02-23T14:46:26.725Z,29.60
2023-02-23T14:49:14.867Z,29.33
2023-02-23T14:51:55.012Z,30.63
2023-02-23T14:54:40.003Z,31.65
2023-02-23T14:57:41.262Z,32.78
2023-02-23T15:00:23.331Z,29.02
2023-02-23T15:03:04.172Z,30.17
2023-02-23T15:05:52.922Z,29.08
2023-02-23T15:08:28.659Z,30.63
2023-02-23T15:11:14.055Z,27.80
2023-02-23T15:13:51.678Z,29.42
2023-02-23T15:16:35.138Z,29.73
2023-02-23T15:19:07.661Z,29.45
2023-02-23T15:21:42.889Z,28.33
2023-02-23T15:24:16.823Z,27.20
2023-02-23T15:26:49.203Z,27.60
2023-02-23T15:29:31.955Z,26.83
2023-02-23T15:32:23.745Z,25.98
2023-02-23T15:34:56.291Z,27.35
2023-02-23T15:37:41.421Z,27.05
2023-02-23T15:40:24.294Z,25.00
2023-02-23T15:43:00.809Z,25.30
2023-02-23T15:45:46.739Z,28.05
2023-02-23T15:48:23.831Z,22.48
2023-02-23T15:50:57.968Z,22.98
2023-02-23T15:53:41.097Z,22.15
2023-02-23T15:56:20.892Z,24.92
2023-02-23T15:58:57.869Z,23.17
2023-02-23T16:01:32.298Z,23.42
2023-02-23T16:04:12.074Z,18.08
2023-02-23T16:07:13.689Z,14.30
2023-02-23T16:09:55.299Z,11.02
2023-02-23T16:12:32.858Z,9.15
2023-02-23T16:15:21.803Z,11.40
2023-02-23T16:18:02.009Z,8.30
2023-02-23T16:20:39.105Z,8.38
2023-02-23T16:23:45.850Z,7.95
2023-02-23T16:26:26.930Z,7.38
2023-02-23T16:29:02.313Z,8.20
2023-02-23T16:32:03.717Z,7.07
2023-02-23T16:34:51.209Z,8.35
2023-02-23T16:37:28.055Z,7.55
2023-02-23T16:40:01.564Z,7.85
2023-02-23T16:42:41.080Z,6.85
2023-02-23T16:45:17.874Z,8.35
2023-02-23T16:47:51.884Z,8.98
2023-02-23T16:50:25.936Z,6.80
2023-02-23T16:52:58.004Z,7.00
2023-02-23T16:55:30.249Z,9.10
2023-02-23T16:58:04.349Z,8.50
2023-02-23T17:00:36.494Z,6.75
2023-02-23T17:03:27.615Z,8.82
2023-02-23T17:06:03.338Z,6.45
2023-02-23T17:08:36.877Z,6.20
2023-02-23T17:11:11.579Z,6.18
2023-02-23T17:13:44.703Z,6.03
2023-02-23T17:16:16.750Z,6.85
2023-02-23T17:18:49.055Z,5.55
2023-02-23T17:21:23.912Z,6.22
2023-02-23T17:24:02.870Z,5.72
2023-02-23T17:26:35.439Z,6.80
2023-02-23T17:29:07.439Z,5.82
2023-02-23T17:31:40.757Z,7.50
2023-02-23T17:34:13.057Z,7.40
2023-02-23T17:36:45.100Z,5.63
2023-02-23T17:39:17.218Z,5.78
2023-02-23T17:41:49.397Z,6.72
2023-02-23T17:44:21.651Z,6.18
2023-02-23T17:46:53.672Z,6.50
2023-02-23T17:49:26.109Z,6.40
2023-02-23T17:51:58.898Z,5.25
2023-02-23T17:54:30.981Z,5.28
2023-02-23T17:57:03.437Z,6.05
2023-02-23T17:59:35.514Z,5.22
2023-02-23T18:02:14.619Z,6.35
2023-02-23T18:04:50.854Z,6.45
2023-02-23T18:07:22.827Z,6.45
2023-02-23T18:09:55.112Z,4.50
2023-02-23T18:12:27.533Z,5.18
2023-02-23T18:15:00.184Z,4.72
2023-02-23T18:17:33.779Z,4.28
2023-02-23T18:20:07.699Z,4.35
2023-02-23T18:22:39.695Z,5.50
2023-02-23T18:25:27.490Z,6.10
2023-02-23T18:27:59.920Z,6.18
2023-02-23T18:30:33.264Z,8.93
2023-02-23T18:33:06.938Z,5.03
2023-02-23T18:35:45.080Z,7.32
2023-02-23T18:38:17.174Z,5.40
2023-02-23T18:40:49.200Z,5.28
2023-02-23T18:43:21.210Z,4.85
2023-02-23T18:45:54.590Z,5.15
2023-02-23T18:48:26.594Z,4.15
2023-02-23T18:50:59.252Z,4.97
2023-02-23T18:53:32.521Z,5.80
2023-02-23T18:56:12.488Z,5.85
2023-02-23T18:58:46.062Z,5.22
2023-02-23T19:01:25.267Z,4.82
2023-02-23T19:04:02.651Z,6.32
2023-02-23T19:06:39.130Z,5.22
2023-02-23T19:09:14.681Z,5.63
2023-02-23T19:11:48.576Z,4.93
2023-02-23T19:14:32.943Z,6.35
2023-02-23T19:17:13.055Z,6.45
2023-02-23T19:19:45.429Z,6.22
2023-02-23T19:22:17.515Z,5.65
2023-02-23T19:24:50.166Z,5.35
2023-02-23T19:27:22.615Z,5.50
2023-02-23T19:29:54.649Z,5.90
2023-02-23T19:32:26.933Z,6.20
2023-02-23T19:34:59.706Z,6.03
2023-02-23T19:37:31.744Z,6.82
2023-02-23T19:40:04.389Z,5.60
2023-02-23T19:42:37.066Z,5.43
2023-02-23T19:45:09.295Z,5.13
2023-02-23T19:47:42.188Z,5.32
2023-02-23T19:50:19.044Z,4.97
2023-02-23T19:52:51.296Z,6.32
2023-02-23T19:55:23.409Z,5.28
2023-02-23T19:57:55.387Z,6.88
2023-02-23T20:00:27.492Z,5.18
2023-02-23T20:03:06.382Z,5.35
2023-02-23T20:05:43.140Z,4.88
2023-02-23T20:08:19.354Z,4.60
2023-02-23T20:10:52.540Z,5.10
2023-02-23T20:13:24.602Z,4.80
2023-02-23T20:16:12.411Z,6.00
2023-02-23T20:18:44.893Z,5.75
2023-02-23T20:21:20.440Z,4.53
2023-02-23T20:23:54.968Z,5.68
2023-02-23T20:26:34.252Z,5.55
2023-02-23T20:29:11.285Z,5.27
2023-02-23T20:31:51.007Z,4.65
2023-02-23T20:34:25.051Z,5.03
2023-02-23T20:36:57.108Z,4.18
2023-02-23T20:39:29.172Z,4.45
2023-02-23T20:42:01.480Z,5.50
2023-02-23T20:44:33.662Z,4.38
2023-02-23T20:47:10.139Z,4.47
2023-02-23T20:49:42.424Z,4.85
2023-02-23T20:52:14.548Z,5.57
2023-02-23T20:54:46.621Z,5.93
2023-02-23T20:57:18.685Z,4.78
2023-02-23T20:59:51.073Z,5.70
2023-02-23T21:02:23.031Z,5.00
2023-02-23T21:04:55.081Z,4.25
2023-02-23T21:07:27.312Z,5.30
2023-02-23T21:09:59.404Z,5.05
2023-02-23T21:12:31.412Z,5.93
2023-02-23T21:15:05.004Z,6.35
2023-02-23T21:17:38.587Z,5.28
2023-02-23T21:20:14.549Z,5.25
2023-02-23T21:22:49.368Z,6.20
2023-02-23T21:25:24.554Z,4.97
2023-02-23T21:27:57.328Z,4.97
2023-02-23T21:30:30.341Z,6.10
2023-02-23T21:33:03.937Z,4.72
2023-02-23T21:35:38.690Z,4.97
2023-02-23T21:38:10.788Z,5.57
2023-02-23T21:40:42.815Z,5.95
2023-02-23T21:43:14.924Z,5.57
2023-02-23T21:45:47.008Z,5.57
2023-02-23T21:48:19.198Z,7.53
2023-02-23T21:50:51.461Z,4.65
2023-02-23T21:53:23.534Z,4.50
2023-02-23T21:55:55.605Z,5.97
2023-02-23T21:58:27.591Z,4.90
2023-02-23T22:00:59.654Z,4.82
2023-02-23T22:03:31.849Z,3.90
2023-02-23T22:06:04.273Z,4.35
2023-02-23T22:08:36.568Z,4.32
2023-02-23T22:11:17.861Z,5.40
2023-02-23T22:13:59.025Z,4.60
2023-02-23T22:16:35.929Z,4.60
2023-02-23T22:19:08.881Z,4.20
2023-02-23T22:21:42.175Z,4.40
2023-02-23T22:24:16.463Z,4.90
2023-02-23T22:27:00.597Z,5.90
2023-02-23T22:29:37.253Z,4.15
2023-02-23T22:32:09.845Z,3.97
2023-02-23T22:34:42.230Z,5.00
2023-02-23T22:37:14.383Z,3.97
2023-02-23T22:39:46.525Z,4.22
2023-02-23T22:42:18.852Z,3.70
2023-02-23T22:45:08.100Z,3.72
2023-02-23T22:47:40.309Z,3.63
2023-02-23T22:50:18.093Z,3.85
2023-02-23T22:52:50.876Z,4.07
2023-02-23T22:55:28.996Z,4.15
2023-02-23T22:58:02.192Z,4.13
2023-02-23T23:00:37.174Z,3.72
2023-02-23T23:03:09.650Z,3.72
2023-02-23T23:05:41.672Z,3.42
2023-02-23T23:08:13.736Z,3.38
2023-02-23T23:10:49.397Z,4.00
2023-02-23T23:13:21.513Z,3.95
2023-02-23T23:15:57.741Z,4.35
2023-02-23T23:18:36.225Z,5.15
2023-02-23T23:21:16.030Z,4.07
2023-02-23T23:23:51.696Z,4.40
2023-02-23T23:26:26.819Z,4.00
2023-02-23T23:29:04.917Z,3.20
2023-02-23T23:31:39.332Z,3.80
2023-02-23T23:34:13.580Z,3.88
2023-02-23T23:36:49.064Z,3.13
2023-02-23T23:39:23.669Z,3.25
2023-02-23T23:41:55.812Z,4.75
2023-02-23T23:44:29.573Z,4.45
2023-02-23T23:47:05.556Z,3.85
2023-02-23T23:49:38.900Z,3.75
2023-02-23T23:52:10.893Z,3.72
2023-02-23T23:54:42.980Z,4.55
2023-02-23T23:57:15.013Z,3.50
2023-02-23T23:59:48.989Z,3.67
